Time;durP1;ratioP1;P1;durP2;ratioP2;P2;SDS_P1;SDS_P2;PMS_P1;PMS_P2;Temp;Humidity;BMP_temperature;BMP_pressure;BME280_temperature;BME280_humidity;BME280_pressure;Samples;Min_cycle;Max_cycle;Signal;HPM_P1;HPM_P2
2024/04/06 00:02:04;;;;;;;2.53;1.60;;;17.70;62.20;;;;;;5001923;28;20406;-62
2024/04/06 00:04:30;;;;;;;2.72;1.58;;;17.70;62.10;;;;;;5012145;28;20195;-61
2024/04/06 00:06:56;;;;;;;1.85;1.60;;;17.60;62.30;;;;;;5010941;28;20060;-62
2024/04/06 00:09:22;;;;;;;2.65;1.65;;;17.60;62.30;;;;;;5009051;28;20677;-62
2024/04/06 00:11:48;;;;;;;1.88;1.27;;;17.70;62.60;;;;;;5006234;28;20026;-62
2024/04/06 00:14:17;;;;;;;1.80;1.50;;;17.60;62.30;;;;;;5012092;28;20049;-62
2024/04/06 00:16:43;;;;;;;2.28;1.45;;;17.60;62.40;;;;;;5000492;28;20513;-62
2024/04/06 00:19:09;;;;;;;2.38;1.40;;;17.60;62.40;;;;;;4997010;28;20048;-61
2024/04/06 00:21:34;;;;;;;2.13;1.20;;;17.50;62.20;;;;;;5001482;28;20037;-60
2024/04/06 00:24:00;;;;;;;1.33;1.15;;;17.50;62.50;;;;;;5011651;28;20036;-62
2024/04/06 00:26:26;;;;;;;4.28;1.40;;;17.50;62.60;;;;;;5013980;28;20502;-60
2024/04/06 00:28:51;;;;;;;1.58;1.23;;;17.50;62.60;;;;;;4994524;28;20034;-62
2024/04/06 00:31:17;;;;;;;2.47;1.50;;;17.50;62.80;;;;;;4996195;28;20037;-62
2024/04/06 00:33:42;;;;;;;2.70;1.23;;;17.50;62.60;;;;;;5004934;28;20068;-61
2024/04/06 00:36:08;;;;;;;1.35;1.25;;;17.40;62.20;;;;;;5010922;28;20033;-62
2024/04/06 00:38:33;;;;;;;2.08;1.25;;;17.40;62.30;;;;;;5010453;28;20328;-62
2024/04/06 00:40:59;;;;;;;1.92;1.15;;;17.30;62.10;;;;;;5001559;28;20129;-60
2024/04/06 00:43:27;;;;;;;1.70;1.13;;;17.30;62.20;;;;;;4997155;28;20334;-62
2024/04/06 00:45:52;;;;;;;3.55;1.15;;;17.20;62.20;;;;;;5010044;28;20040;-60
2024/04/06 00:48:19;;;;;;;1.48;1.35;;;17.00;62.30;;;;;;5005904;28;20033;-62
2024/04/06 00:50:45;;;;;;;3.08;1.30;;;16.90;62.40;;;;;;5017371;28;20108;-62
2024/04/06 00:53:10;;;;;;;2.15;1.40;;;16.90;62.70;;;;;;5004399;28;20065;-62
2024/04/06 00:55:36;;;;;;;1.20;1.10;;;16.80;62.70;;;;;;5007107;28;20216;-62
2024/04/06 00:58:02;;;;;;;3.33;1.50;;;16.70;63.10;;;;;;5009273;28;20040;-62
2024/04/06 01:00:27;;;;;;;2.53;1.50;;;16.60;63.30;;;;;;4988577;28;20695;-61
2024/04/06 01:02:53;;;;;;;3.45;1.63;;;16.60;63.30;;;;;;4982793;28;20544;-62
2024/04/06 01:05:19;;;;;;;4.50;1.58;;;16.50;63.40;;;;;;5003987;28;20244;-62
2024/04/06 01:07:45;;;;;;;2.58;1.27;;;16.30;63.60;;;;;;4994663;28;20034;-62
2024/04/06 01:10:14;;;;;;;2.08;1.42;;;16.20;63.70;;;;;;5006715;28;20065;-61
2024/04/06 01:12:40;;;;;;;1.88;1.45;;;16.10;63.90;;;;;;5001683;28;20066;-61
2024/04/06 01:15:05;;;;;;;6.18;1.45;;;16.00;64.20;;;;;;5006602;28;20517;-61
2024/04/06 01:17:31;;;;;;;1.95;1.40;;;15.90;64.40;;;;;;5008502;28;20030;-62
2024/04/06 01:19:57;;;;;;;1.30;1.20;;;15.80;64.50;;;;;;5008582;28;20464;-61
2024/04/06 01:22:22;;;;;;;1.40;1.25;;;15.80;64.70;;;;;;5008496;28;20040;-62
2024/04/06 01:24:48;;;;;;;1.98;1.50;;;15.70;65.00;;;;;;5015324;28;20053;-62
2024/04/06 01:27:13;;;;;;;1.83;1.33;;;15.70;65.20;;;;;;5014100;28;20054;-62
2024/04/06 01:29:39;;;;;;;2.47;1.40;;;15.60;65.50;;;;;;4991466;28;20052;-62
2024/04/06 01:32:05;;;;;;;4.40;1.80;;;15.50;65.70;;;;;;5002334;28;20026;-62
2024/04/06 01:34:30;;;;;;;2.88;1.45;;;15.40;65.90;;;;;;4999492;28;20057;-61
2024/04/06 01:36:56;;;;;;;2.47;1.40;;;15.30;66.20;;;;;;5002354;28;20466;-60
2024/04/06 01:39:22;;;;;;;3.35;1.50;;;15.20;66.40;;;;;;5009646;28;20041;-62
2024/04/06 01:41:48;;;;;;;2.40;1.58;;;15.10;66.60;;;;;;5007513;28;20120;-62
2024/04/06 01:44:14;;;;;;;3.45;1.80;;;15.10;66.80;;;;;;5008805;28;20398;-62
2024/04/06 01:46:40;;;;;;;1.50;1.40;;;15.00;67.10;;;;;;5008008;28;20533;-61
2024/04/06 01:49:06;;;;;;;4.00;1.40;;;14.90;67.20;;;;;;5013136;28;20045;-62
2024/04/06 01:51:31;;;;;;;2.08;1.35;;;14.80;67.30;;;;;;5010815;28;20034;-61
2024/04/06 01:53:57;;;;;;;2.53;1.52;;;14.70;67.50;;;;;;4986069;28;20518;-62
2024/04/06 01:56:22;;;;;;;1.63;1.40;;;14.60;67.80;;;;;;4990595;28;20046;-62
2024/04/06 01:58:48;;;;;;;2.30;1.60;;;14.60;68.10;;;;;;5006793;28;20034;-60
2024/04/06 02:01:14;;;;;;;2.55;1.60;;;14.50;68.20;;;;;;5006048;28;20037;-61
2024/04/06 02:03:40;;;;;;;1.77;1.40;;;14.40;68.30;;;;;;4993983;28;20035;-60
2024/04/06 02:06:08;;;;;;;3.00;1.70;;;14.40;68.50;;;;;;5001387;28;20133;-62
2024/04/06 02:08:37;;;;;;;1.73;1.23;;;14.30;68.70;;;;;;5003324;28;20033;-61
2024/04/06 02:11:04;;;;;;;1.77;1.20;;;14.30;68.80;;;;;;4991724;28;20102;-60
2024/04/06 02:13:30;;;;;;;2.65;1.33;;;14.20;69.00;;;;;;5007812;28;20525;-61
2024/04/06 02:15:55;;;;;;;1.98;1.38;;;14.00;69.10;;;;;;5005408;28;20046;-61
2024/04/06 02:18:21;;;;;;;1.42;1.30;;;14.10;69.30;;;;;;5003766;28;20042;-60
2024/04/06 02:20:47;;;;;;;1.45;1.35;;;14.10;69.40;;;;;;5000490;28;20465;-61
2024/04/06 02:23:13;;;;;;;2.70;1.38;;;14.00;69.50;;;;;;4985115;28;20477;-61
2024/04/06 02:25:38;;;;;;;1.67;1.33;;;14.00;69.70;;;;;;5010145;28;20033;-61
2024/04/06 02:28:04;;;;;;;2.47;1.50;;;14.00;69.70;;;;;;5003181;28;20265;-61
2024/04/06 02:30:31;;;;;;;1.80;1.35;;;14.00;69.70;;;;;;5007737;28;20080;-60
2024/04/06 02:32:57;;;;;;;3.15;1.58;;;13.90;69.80;;;;;;5019188;28;20030;-61
2024/04/06 02:35:22;;;;;;;1.85;1.40;;;13.80;69.90;;;;;;5003160;28;20032;-60
2024/04/06 02:37:48;;;;;;;1.60;1.50;;;13.80;70.90;;;;;;5005360;28;20129;-61
2024/04/06 02:40:14;;;;;;;3.13;1.58;;;13.80;70.10;;;;;;4997509;28;20059;-60
2024/04/06 02:42:39;;;;;;;1.80;1.40;;;13.70;70.00;;;;;;4984330;28;20035;-60
2024/04/06 02:45:05;;;;;;;1.92;1.50;;;13.70;70.10;;;;;;5005767;28;20029;-61
2024/04/06 02:47:31;;;;;;;3.65;1.60;;;13.70;70.30;;;;;;5012107;28;20137;-60
2024/04/06 02:49:57;;;;;;;3.45;1.40;;;13.60;70.40;;;;;;5009059;28;20101;-61
2024/04/06 02:52:23;;;;;;;2.13;1.42;;;13.60;70.50;;;;;;4989587;28;20117;-61
2024/04/06 02:54:48;;;;;;;2.20;1.45;;;13.60;71.40;;;;;;4988767;28;20410;-61
2024/04/06 02:57:14;;;;;;;2.53;1.60;;;13.50;70.60;;;;;;4996347;28;20041;-60
2024/04/06 02:59:41;;;;;;;2.22;1.48;;;13.40;70.70;;;;;;4991959;28;20048;-61
2024/04/06 03:02:08;;;;;;;2.60;1.60;;;13.40;70.70;;;;;;5007651;28;20026;-61
2024/04/06 03:04:34;;;;;;;2.03;1.65;;;13.30;70.80;;;;;;4990728;28;20030;-62
2024/04/06 03:07:00;;;;;;;1.73;1.23;;;13.30;71.00;;;;;;4984423;28;20585;-62
2024/04/06 03:09:25;;;;;;;3.63;1.70;;;13.20;71.20;;;;;;4986568;28;20124;-62
2024/04/06 03:11:51;;;;;;;1.52;1.42;;;13.20;71.30;;;;;;4987343;28;20509;-62
2024/04/06 03:14:16;;;;;;;3.78;1.73;;;13.10;71.40;;;;;;4984567;28;20431;-62
2024/04/06 03:16:42;;;;;;;1.90;1.70;;;13.10;71.40;;;;;;4985348;28;20046;-62
2024/04/06 03:19:08;;;;;;;1.67;1.40;;;13.10;71.60;;;;;;4988053;28;20409;-60
2024/04/06 03:21:33;;;;;;;1.70;1.35;;;13.00;71.60;;;;;;4989812;28;20066;-62
2024/04/06 03:23:59;;;;;;;2.03;1.30;;;12.90;71.80;;;;;;4994096;28;20030;-61
2024/04/06 03:26:24;;;;;;;2.17;1.58;;;12.90;72.20;;;;;;4986557;28;20038;-61
2024/04/06 03:28:51;;;;;;;3.90;1.92;;;12.90;72.40;;;;;;4982780;28;20042;-62
2024/04/06 03:31:17;;;;;;;1.90;1.70;;;12.90;72.50;;;;;;5000562;28;20045;-62
2024/04/06 03:33:43;;;;;;;1.77;1.50;;;13.00;72.70;;;;;;5007000;28;20034;-62
2024/04/06 03:36:08;;;;;;;1.83;1.60;;;12.90;72.80;;;;;;5005114;28;20038;-62
2024/04/06 03:38:34;;;;;;;2.90;1.65;;;12.90;72.80;;;;;;5006772;28;20894;-62
2024/04/06 03:41:00;;;;;;;4.18;2.00;;;12.90;72.70;;;;;;5016851;28;20488;-62
2024/04/06 03:43:26;;;;;;;3.90;1.90;;;12.90;72.70;;;;;;5014450;28;20383;-61
2024/04/06 03:45:54;;;;;;;5.20;2.47;;;12.90;72.70;;;;;;5000596;28;20583;-62
2024/04/06 03:48:19;;;;;;;5.50;2.17;;;12.80;72.80;;;;;;5009402;28;20506;-62
2024/04/06 03:50:45;;;;;;;2.38;2.00;;;12.80;72.80;;;;;;5009657;28;20041;-62
2024/04/06 03:53:12;;;;;;;5.00;2.20;;;12.80;72.90;;;;;;5012589;28;20045;-62
2024/04/06 03:55:38;;;;;;;4.35;2.03;;;12.80;72.90;;;;;;5007415;28;20026;-62
2024/04/06 03:58:03;;;;;;;2.65;1.70;;;12.70;72.80;;;;;;5004822;28;20087;-61
2024/04/06 04:00:29;;;;;;;1.63;1.48;;;12.70;72.80;;;;;;4991126;28;20057;-62
2024/04/06 04:02:54;;;;;;;2.40;1.67;;;12.60;73.00;;;;;;4989919;28;20121;-62
2024/04/06 04:05:20;;;;;;;2.80;1.85;;;12.60;73.00;;;;;;5003497;28;20041;-62
2024/04/06 04:07:46;;;;;;;2.88;1.83;;;12.50;73.10;;;;;;4993455;28;20092;-62
2024/04/06 04:10:11;;;;;;;4.07;1.80;;;12.50;73.20;;;;;;5005145;28;20057;-62
2024/04/06 04:12:37;;;;;;;2.30;1.70;;;12.50;74.20;;;;;;4996441;28;20470;-62
2024/04/06 04:15:04;;;;;;;2.17;1.58;;;12.40;73.30;;;;;;4994128;28;20706;-62
2024/04/06 04:17:32;;;;;;;2.95;1.67;;;12.40;73.50;;;;;;5004987;28;20046;-62
2024/04/06 04:19:58;;;;;;;3.72;2.10;;;12.40;73.50;;;;;;5016136;28;20450;-62
2024/04/06 04:22:23;;;;;;;4.82;2.10;;;12.30;74.30;;;;;;5004270;28;20095;-62
2024/04/06 04:24:49;;;;;;;2.75;1.63;;;12.30;73.50;;;;;;4998972;28;20042;-61
2024/04/06 04:27:15;;;;;;;1.98;1.50;;;12.30;73.50;;;;;;4988477;28;20045;-62
2024/04/06 04:29:40;;;;;;;2.80;1.67;;;12.20;73.50;;;;;;5007753;28;20498;-62
2024/04/06 04:32:06;;;;;;;3.30;1.40;;;12.20;73.70;;;;;;4991726;28;20037;-61
2024/04/06 04:34:31;;;;;;;2.60;1.55;;;12.20;73.70;;;;;;5010229;28;20084;-62
2024/04/06 04:36:57;;;;;;;5.03;2.05;;;12.10;73.70;;;;;;5012246;28;20399;-62
2024/04/06 04:39:22;;;;;;;3.58;2.10;;;12.10;73.70;;;;;;4988958;28;20125;-61
2024/04/06 04:41:50;;;;;;;2.95;1.70;;;12.10;73.90;;;;;;5005986;28;20092;-62
2024/04/06 04:44:15;;;;;;;2.92;1.67;;;12.00;74.90;;;;;;5002689;28;20667;-62
2024/04/06 04:46:41;;;;;;;3.20;1.83;;;11.90;74.20;;;;;;5007981;28;20754;-61
2024/04/06 04:49:06;;;;;;;1.80;1.70;;;11.90;74.40;;;;;;5002040;28;20029;-61
2024/04/06 04:51:32;;;;;;;1.95;1.73;;;11.90;74.40;;;;;;5009339;28;20030;-62
2024/04/06 04:53:58;;;;;;;4.82;1.80;;;11.90;74.40;;;;;;4988389;28;20145;-61
2024/04/06 04:56:23;;;;;;;2.80;2.20;;;11.90;74.60;;;;;;4980779;28;20550;-61
2024/04/06 04:58:49;;;;;;;4.07;2.03;;;11.80;74.60;;;;;;5006370;28;20099;-61
2024/04/06 05:01:18;;;;;;;3.28;2.17;;;11.80;74.70;;;;;;5009524;28;20457;-59
2024/04/06 05:03:43;;;;;;;4.72;2.30;;;11.70;74.70;;;;;;5014083;28;20057;-60
2024/04/06 05:06:10;;;;;;;3.20;1.88;;;11.70;74.80;;;;;;5013541;28;20514;-61
2024/04/06 05:08:35;;;;;;;2.85;1.80;;;11.70;75.00;;;;;;4997223;28;20042;-60
2024/04/06 05:11:01;;;;;;;3.45;1.70;;;11.70;75.10;;;;;;4986011;28;20386;-61
2024/04/06 05:13:27;;;;;;;3.28;2.05;;;11.70;75.10;;;;;;5007832;28;20073;-62
2024/04/06 05:15:54;;;;;;;2.97;2.10;;;11.60;75.10;;;;;;5008309;28;20060;-60
2024/04/06 05:18:21;;;;;;;2.80;2.15;;;11.60;75.30;;;;;;5013238;28;20535;-61
2024/04/06 05:20:54;;;;;;;2.95;1.98;;;11.60;75.40;;;;;;4996925;28;20049;-60
2024/04/06 05:23:21;;;;;;;3.13;1.88;;;11.60;75.60;;;;;;4989699;28;20545;-60
2024/04/06 05:25:48;;;;;;;2.97;2.05;;;11.50;75.40;;;;;;5008518;28;20046;-60
2024/04/06 05:28:18;;;;;;;8.93;2.35;;;11.60;75.60;;;;;;5000617;28;20034;-61
2024/04/06 05:30:48;;;;;;;4.55;2.35;;;11.60;75.90;;;;;;5011637;28;20045;-61
2024/04/06 05:33:15;;;;;;;5.93;2.20;;;11.50;76.00;;;;;;5010608;28;20042;-60
2024/04/06 05:35:41;;;;;;;6.35;2.30;;;11.50;75.90;;;;;;5007563;28;20034;-59
2024/04/06 05:38:07;;;;;;;3.40;1.80;;;11.50;76.10;;;;;;5011056;28;20117;-61
2024/04/06 05:40:39;;;;;;;3.22;2.08;;;11.60;76.30;;;;;;5004303;28;20571;-60
2024/04/06 05:43:07;;;;;;;2.53;2.33;;;11.50;76.50;;;;;;5005891;28;20042;-60
2024/04/06 05:45:35;;;;;;;2.45;2.15;;;11.50;76.50;;;;;;5010547;28;20032;-61
2024/04/06 05:48:03;;;;;;;3.45;2.10;;;11.50;76.50;;;;;;5008399;28;20039;-61
2024/04/06 05:50:30;;;;;;;6.20;2.58;;;11.60;76.80;;;;;;5016483;28;20026;-61
2024/04/06 05:52:56;;;;;;;4.18;2.60;;;11.60;76.90;;;;;;5004413;28;20579;-61
2024/04/06 05:55:22;;;;;;;2.97;2.60;;;11.60;77.00;;;;;;5011183;28;20065;-61
2024/04/06 05:57:48;;;;;;;5.90;2.60;;;11.70;77.30;;;;;;4984096;28;20039;-61
2024/04/06 06:00:15;;;;;;;6.85;2.60;;;11.70;77.40;;;;;;4991089;28;20109;-61
2024/04/06 06:02:41;;;;;;;4.47;2.75;;;11.70;77.40;;;;;;4992901;28;20625;-62
2024/04/06 06:05:06;;;;;;;3.45;2.67;;;11.80;77.40;;;;;;5001404;28;20125;-61
2024/04/06 06:07:32;;;;;;;6.05;2.60;;;11.80;77.70;;;;;;5004520;28;20109;-61
2024/04/06 06:09:58;;;;;;;4.05;2.63;;;11.90;77.90;;;;;;4982283;28;20033;-62
2024/04/06 06:12:24;;;;;;;6.07;2.50;;;11.90;78.20;;;;;;4991405;28;20052;-61
2024/04/06 06:14:50;;;;;;;7.63;2.42;;;11.90;78.40;;;;;;4994664;28;20062;-60
2024/04/06 06:17:17;;;;;;;3.38;2.60;;;12.00;78.70;;;;;;4988339;28;21022;-60
2024/04/06 06:19:42;;;;;;;4.57;2.75;;;12.10;78.90;;;;;;4983759;28;20050;-60
2024/04/06 06:22:08;;;;;;;4.95;2.88;;;12.10;79.30;;;;;;4992326;28;20053;-61
2024/04/06 06:24:33;;;;;;;4.22;2.95;;;12.20;79.50;;;;;;4988958;28;20315;-60
2024/04/06 06:26:59;;;;;;;5.78;3.20;;;12.20;79.60;;;;;;4993327;28;20391;-61
2024/04/06 06:29:25;;;;;;;5.88;3.70;;;12.30;79.60;;;;;;4992222;28;20049;-61
2024/04/06 06:31:50;;;;;;;6.80;3.90;;;12.40;79.60;;;;;;4998065;28;20092;-60
2024/04/06 06:34:19;;;;;;;7.55;4.63;;;12.50;80.10;;;;;;4985921;28;20042;-59
2024/04/06 06:36:45;;;;;;;5.72;3.97;;;12.60;80.40;;;;;;4996109;28;20030;-58
2024/04/06 06:39:11;;;;;;;5.85;3.63;;;12.70;80.50;;;;;;4991199;28;20041;-61
2024/04/06 06:41:36;;;;;;;6.85;3.10;;;12.70;80.40;;;;;;4990868;28;20057;-60
2024/04/06 06:44:03;;;;;;;3.03;2.55;;;12.80;80.30;;;;;;4995480;28;20592;-61
2024/04/06 06:46:28;;;;;;;5.93;2.70;;;13.00;80.10;;;;;;4997226;28;20587;-61
2024/04/06 06:48:54;;;;;;;2.50;2.30;;;13.10;80.00;;;;;;4992866;28;20041;-59
2024/04/06 06:51:19;;;;;;;4.25;2.28;;;13.20;80.80;;;;;;4994952;28;20096;-61
2024/04/06 06:53:45;;;;;;;3.42;2.28;;;13.30;80.60;;;;;;4995836;28;20053;-59
2024/04/06 06:56:10;;;;;;;2.45;2.03;;;13.50;79.30;;;;;;4990176;28;20125;-59
2024/04/06 06:58:36;;;;;;;4.88;2.35;;;13.60;79.10;;;;;;4992252;28;20100;-59
2024/04/06 07:01:02;;;;;;;2.28;1.92;;;13.80;78.90;;;;;;4970527;28;20038;-61
2024/04/06 07:03:28;;;;;;;2.28;1.65;;;13.90;78.40;;;;;;4968857;28;20050;-60
2024/04/06 07:05:54;;;;;;;2.28;1.50;;;14.00;78.00;;;;;;4974308;28;20046;-61
2024/04/06 07:08:19;;;;;;;1.88;1.25;;;14.20;77.80;;;;;;4979521;28;20801;-61
2024/04/06 07:10:45;;;;;;;1.30;0.95;;;14.30;77.20;;;;;;4976246;28;22085;-61
2024/04/06 07:13:10;;;;;;;1.13;0.80;;;14.40;76.90;;;;;;4969466;28;20037;-58
2024/04/06 07:15:37;;;;;;;1.98;1.02;;;14.60;76.50;;;;;;4969695;28;20481;-60
2024/04/06 07:18:03;;;;;;;2.30;0.90;;;14.80;76.00;;;;;;4982884;28;20092;-61
2024/04/06 07:20:30;;;;;;;1.77;0.73;;;14.90;75.30;;;;;;4972221;28;20490;-60
2024/04/06 07:22:56;;;;;;;2.55;1.30;;;15.10;74.90;;;;;;4972091;28;20058;-61
2024/04/06 07:25:21;;;;;;;1.02;0.70;;;15.30;74.50;;;;;;4980775;28;20566;-62
2024/04/06 07:27:47;;;;;;;1.70;1.05;;;15.50;74.00;;;;;;4992436;28;20062;-60
2024/04/06 07:30:13;;;;;;;3.67;1.00;;;15.60;73.70;;;;;;4994105;28;20034;-61
2024/04/06 07:32:38;;;;;;;1.20;0.95;;;15.80;73.20;;;;;;4992289;28;20084;-62
2024/04/06 07:35:09;;;;;;;1.38;1.05;;;15.90;72.80;;;;;;4998897;28;20046;-60
2024/04/06 07:37:35;;;;;;;1.45;0.90;;;16.10;71.90;;;;;;5012359;28;20033;-61
2024/04/06 07:40:00;;;;;;;2.10;0.80;;;16.30;71.40;;;;;;5003865;28;20042;-60
2024/04/06 07:42:26;;;;;;;3.40;1.00;;;16.40;71.80;;;;;;4983674;28;20030;-60
2024/04/06 07:44:51;;;;;;;1.33;1.00;;;16.60;70.90;;;;;;5004041;28;20117;-59
2024/04/06 07:47:18;;;;;;;1.42;0.85;;;16.70;70.20;;;;;;5003362;28;20088;-61
2024/04/06 07:49:44;;;;;;;1.52;0.88;;;16.80;69.60;;;;;;5005230;28;20030;-59
2024/04/06 07:52:09;;;;;;;3.17;0.95;;;17.00;69.20;;;;;;5002707;28;20073;-60
2024/04/06 07:54:35;;;;;;;0.98;0.82;;;17.10;68.60;;;;;;5006789;28;20513;-61
2024/04/06 07:57:02;;;;;;;1.40;0.90;;;17.20;68.10;;;;;;5010985;28;20048;-60
2024/04/06 07:59:29;;;;;;;1.42;0.70;;;17.30;67.70;;;;;;5007425;28;20096;-60
2024/04/06 08:01:54;;;;;;;0.80;0.80;;;17.50;67.50;;;;;;5002551;28;20031;-60
2024/04/06 08:04:20;;;;;;;2.50;0.50;;;17.60;67.30;;;;;;4995877;28;20042;-61
2024/04/06 08:06:45;;;;;;;1.42;0.60;;;17.70;67.20;;;;;;5012061;28;20042;-61
2024/04/06 08:09:11;;;;;;;1.92;0.80;;;17.80;67.10;;;;;;4990299;28;20030;-61
2024/04/06 08:11:37;;;;;;;1.20;0.70;;;17.90;66.70;;;;;;4987504;28;20045;-61
2024/04/06 08:14:02;;;;;;;1.70;0.90;;;18.00;66.60;;;;;;5006106;28;20042;-61
2024/04/06 08:16:28;;;;;;;1.30;0.88;;;18.10;66.00;;;;;;5002389;28;20445;-61
2024/04/06 08:18:54;;;;;;;2.75;0.90;;;18.20;65.70;;;;;;5005030;28;20053;-61
2024/04/06 08:21:20;;;;;;;1.73;0.80;;;18.30;65.10;;;;;;4986386;28;20552;-61
2024/04/06 08:23:45;;;;;;;2.78;0.82;;;18.40;65.00;;;;;;4996061;28;20099;-64
2024/04/06 08:26:11;;;;;;;1.70;0.90;;;18.50;64.70;;;;;;5004866;28;20066;-61
2024/04/06 08:28:36;;;;;;;2.05;0.93;;;18.60;65.50;;;;;;4984387;28;20490;-61
2024/04/06 08:31:03;;;;;;;7.95;1.10;;;18.60;64.30;;;;;;4996397;28;20121;-61
2024/04/06 08:33:29;;;;;;;1.23;0.80;;;18.70;64.10;;;;;;5011877;28;20037;-61
2024/04/06 08:36:01;;;;;;;2.08;1.00;;;18.80;64.10;;;;;;5024306;28;20030;-61
2024/04/06 08:38:27;;;;;;;2.45;0.85;;;18.90;63.30;;;;;;5008986;28;20392;-61
2024/04/06 08:40:52;;;;;;;1.30;0.77;;;19.00;63.60;;;;;;5015855;28;20029;-59
2024/04/06 08:43:19;;;;;;;2.15;0.80;;;19.10;63.50;;;;;;5011174;28;20063;-62
2024/04/06 08:45:45;;;;;;;2.40;0.80;;;19.10;63.40;;;;;;5003562;28;20101;-62
2024/04/06 08:48:12;;;;;;;2.10;1.50;;;19.20;63.50;;;;;;5014390;28;20091;-61
2024/04/06 08:50:40;;;;;;;3.78;1.63;;;19.30;63.30;;;;;;5011825;28;20038;-61
2024/04/06 08:53:06;;;;;;;2.72;1.13;;;19.40;63.30;;;;;;4996609;28;20029;-59
2024/04/06 08:55:32;;;;;;;3.03;0.95;;;19.50;62.90;;;;;;4992372;28;20034;-59
2024/04/06 08:57:58;;;;;;;1.77;0.88;;;19.60;62.60;;;;;;4996595;28;20498;-59
2024/04/06 09:00:27;;;;;;;1.83;0.85;;;19.70;62.40;;;;;;5009893;28;20057;-61
2024/04/06 09:02:53;;;;;;;2.53;0.90;;;19.80;62.00;;;;;;5007993;28;20054;-60
2024/04/06 09:05:19;;;;;;;0.90;0.60;;;19.90;61.90;;;;;;5008907;28;20065;-61
2024/04/06 09:07:48;;;;;;;3.95;1.38;;;20.00;61.70;;;;;;5008425;28;20486;-61
2024/04/06 09:10:14;;;;;;;2.83;1.10;;;20.10;61.30;;;;;;5011710;28;20073;-61
2024/04/06 09:12:41;;;;;;;2.70;1.25;;;20.10;61.90;;;;;;5000440;28;20050;-61
2024/04/06 09:15:09;;;;;;;2.50;1.00;;;20.20;61.50;;;;;;4990680;28;20038;-61
2024/04/06 09:17:35;;;;;;;1.13;0.90;;;20.30;61.20;;;;;;5015864;28;20034;-60
2024/04/06 09:20:02;;;;;;;1.88;0.98;;;20.40;60.80;;;;;;5015528;28;20030;-60
2024/04/06 09:22:27;;;;;;;2.45;1.00;;;20.50;60.60;;;;;;5023395;28;20113;-61
2024/04/06 09:24:54;;;;;;;4.95;0.85;;;20.50;61.50;;;;;;5002486;28;20158;-60
2024/04/06 09:27:20;;;;;;;1.83;0.80;;;20.60;60.20;;;;;;4993453;28;20570;-61
2024/04/06 09:29:48;;;;;;;1.17;0.73;;;20.70;60.80;;;;;;5010122;28;20129;-61
2024/04/06 09:32:18;;;;;;;1.75;0.70;;;20.70;59.90;;;;;;5006475;28;20084;-61
2024/04/06 09:34:49;;;;;;;2.45;0.82;;;20.80;59.80;;;;;;5006625;28;20558;-60
2024/04/06 09:37:21;;;;;;;1.60;0.73;;;20.90;59.40;;;;;;5013411;28;20061;-62
2024/04/06 09:39:47;;;;;;;1.52;1.13;;;21.00;59.60;;;;;;5019665;28;20026;-61
2024/04/06 09:42:14;;;;;;;3.63;1.13;;;21.10;59.40;;;;;;5010631;28;20036;-62
2024/04/06 09:44:42;;;;;;;1.58;0.82;;;21.20;59.20;;;;;;5007480;28;20104;-62
2024/04/06 09:47:10;;;;;;;1.45;0.80;;;21.20;59.00;;;;;;5018150;28;20030;-61
2024/04/06 09:49:36;;;;;;;2.75;0.90;;;21.30;58.90;;;;;;5008430;28;20528;-60
2024/04/06 09:52:02;;;;;;;1.45;0.75;;;21.40;58.30;;;;;;5014959;28;20061;-60
2024/04/06 09:54:28;;;;;;;2.28;0.75;;;21.50;57.70;;;;;;4996070;28;20040;-60
2024/04/06 09:56:54;;;;;;;1.00;0.55;;;21.60;57.50;;;;;;5003812;28;20113;-59
2024/04/06 09:59:23;;;;;;;0.75;0.63;;;21.70;57.30;;;;;;5010040;28;20049;-61
2024/04/06 10:01:52;;;;;;;0.77;0.52;;;21.70;56.30;;;;;;5012867;28;20053;-60
2024/04/06 10:04:33;;;;;;;0.52;0.50;;;21.90;56.60;;;;;;5013027;28;20070;-60
2024/04/06 10:07:02;;;;;;;3.38;0.80;;;22.00;55.30;;;;;;5011058;28;20582;-62
2024/04/06 10:09:37;;;;;;;2.35;0.63;;;22.10;55.80;;;;;;5008720;28;20445;-61
2024/04/06 10:12:08;;;;;;;0.98;0.73;;;22.10;55.00;;;;;;5000745;28;20027;-61
2024/04/06 10:14:47;;;;;;;1.40;0.80;;;22.20;55.10;;;;;;4988278;28;20612;-61
2024/04/06 10:17:16;;;;;;;2.92;0.82;;;22.30;53.50;;;;;;5005453;28;20045;-61
2024/04/06 10:19:43;;;;;;;1.40;0.60;;;22.30;54.00;;;;;;4998299;28;20050;-61
2024/04/06 10:22:10;;;;;;;2.53;0.52;;;22.40;54.10;;;;;;5010331;28;20026;-60
2024/04/06 10:24:36;;;;;;;2.70;0.85;;;22.40;54.30;;;;;;5005640;28;20033;-61
2024/04/06 10:27:03;;;;;;;1.25;0.80;;;22.40;54.10;;;;;;5008757;28;20092;-61
2024/04/06 10:29:30;;;;;;;1.00;0.75;;;22.50;54.40;;;;;;4990158;28;20556;-61
2024/04/06 10:31:55;;;;;;;2.25;0.80;;;22.50;53.50;;;;;;4998087;28;20029;-60
2024/04/06 10:34:21;;;;;;;2.08;0.90;;;22.50;53.70;;;;;;5010748;28;20572;-61
2024/04/06 10:36:47;;;;;;;0.80;0.60;;;22.60;53.80;;;;;;4992060;28;20057;-61
2024/04/06 10:39:16;;;;;;;1.30;0.85;;;22.60;53.80;;;;;;4991547;28;20097;-62
2024/04/06 10:41:43;;;;;;;2.75;0.70;;;22.70;53.60;;;;;;4993070;28;20034;-62
2024/04/06 10:44:09;;;;;;;3.20;0.70;;;22.80;53.30;;;;;;4990116;28;20034;-61
2024/04/06 10:46:35;;;;;;;2.47;1.50;;;22.80;52.70;;;;;;4999763;28;20034;-62
2024/04/06 10:49:00;;;;;;;4.45;0.90;;;22.90;52.90;;;;;;5011499;28;20041;-61
2024/04/06 10:51:26;;;;;;;3.38;0.70;;;23.00;52.30;;;;;;4998633;28;20026;-60
2024/04/06 10:53:56;;;;;;;1.48;0.60;;;23.10;51.80;;;;;;5013024;28;20570;-61
2024/04/06 10:56:21;;;;;;;1.23;0.70;;;23.20;51.00;;;;;;5003551;28;20034;-60
2024/04/06 10:58:48;;;;;;;0.88;0.60;;;23.30;50.70;;;;;;4993225;28;20471;-61
2024/04/06 11:01:15;;;;;;;1.70;0.88;;;23.40;50.40;;;;;;5013830;28;20400;-61
2024/04/06 11:03:41;;;;;;;2.42;0.80;;;23.40;50.00;;;;;;4996688;28;20415;-62
2024/04/06 11:06:08;;;;;;;1.23;0.70;;;23.50;50.30;;;;;;5019948;28;20038;-60
2024/04/06 11:08:34;;;;;;;0.50;0.50;;;23.60;50.20;;;;;;5004863;28;20033;-61
2024/04/06 11:11:00;;;;;;;1.67;1.05;;;23.60;50.00;;;;;;4999368;28;20037;-62
2024/04/06 11:13:26;;;;;;;1.88;1.02;;;23.70;50.20;;;;;;5015575;28;20026;-62
2024/04/06 11:15:51;;;;;;;3.63;2.40;;;23.80;50.50;;;;;;5008338;28;20536;-62
2024/04/06 11:18:17;;;;;;;1.42;1.10;;;23.90;50.50;;;;;;5022225;28;20064;-61
2024/04/06 11:20:43;;;;;;;3.08;1.92;;;23.90;50.20;;;;;;5007438;28;20394;-61
2024/04/06 11:23:19;;;;;;;1.55;1.00;;;24.00;50.10;;;;;;5000074;28;20037;-61
2024/04/06 11:25:45;;;;;;;1.50;1.13;;;24.10;49.40;;;;;;5020379;28;20060;-62
2024/04/06 11:28:10;;;;;;;2.15;0.68;;;24.10;49.80;;;;;;5021112;28;20098;-62
2024/04/06 11:30:36;;;;;;;2.65;0.80;;;24.10;49.90;;;;;;5010757;28;20035;-62
2024/04/06 11:33:03;;;;;;;1.10;0.77;;;24.20;49.70;;;;;;5017110;28;20029;-61
2024/04/06 11:35:30;;;;;;;1.20;0.57;;;24.30;49.70;;;;;;4994190;28;20057;-60
2024/04/06 11:37:56;;;;;;;1.48;0.73;;;24.40;49.60;;;;;;5012432;28;20025;-62
2024/04/06 11:40:21;;;;;;;2.47;0.82;;;24.40;48.90;;;;;;5001469;28;20029;-60
2024/04/06 11:42:47;;;;;;;0.95;0.57;;;24.50;48.60;;;;;;4994726;28;20041;-59
2024/04/06 11:45:13;;;;;;;1.73;0.50;;;24.50;48.40;;;;;;5002867;28;20030;-61
2024/04/06 11:47:40;;;;;;;1.63;0.70;;;24.70;48.20;;;;;;4990877;28;20091;-61
2024/04/06 11:50:05;;;;;;;2.53;0.70;;;24.70;47.90;;;;;;5014817;28;20107;-59
2024/04/06 11:52:31;;;;;;;1.60;0.60;;;24.80;47.70;;;;;;5019020;28;20108;-60
2024/04/06 11:54:56;;;;;;;0.80;0.50;;;24.90;47.80;;;;;;5000832;28;20042;-61
2024/04/06 11:57:22;;;;;;;3.92;0.65;;;25.10;48.00;;;;;;5014114;28;20033;-62
2024/04/06 11:59:48;;;;;;;1.58;0.57;;;25.10;47.10;;;;;;5008864;28;20125;-62
2024/04/06 12:02:13;;;;;;;1.27;0.55;;;25.20;47.00;;;;;;5011638;28;20405;-62
2024/04/06 12:04:39;;;;;;;2.63;0.60;;;25.30;46.60;;;;;;5008529;28;20030;-62
2024/04/06 12:07:05;;;;;;;1.02;0.55;;;25.30;46.30;;;;;;5008806;28;20042;-61
2024/04/06 12:09:30;;;;;;;1.38;0.65;;;25.40;45.80;;;;;;4995509;28;20375;-61
2024/04/06 12:11:56;;;;;;;1.02;0.50;;;25.40;45.50;;;;;;4984372;28;20041;-62
2024/04/06 12:14:21;;;;;;;1.15;0.50;;;25.40;45.40;;;;;;4989794;28;20044;-59
2024/04/06 12:16:47;;;;;;;1.58;0.40;;;25.50;45.50;;;;;;4993699;28;20457;-61
2024/04/06 12:19:13;;;;;;;0.73;0.50;;;25.50;45.10;;;;;;4998228;28;20033;-62
2024/04/06 12:21:38;;;;;;;1.00;0.57;;;25.50;45.00;;;;;;4995529;28;20038;-62
2024/04/06 12:24:04;;;;;;;1.45;0.80;;;25.60;45.00;;;;;;5001081;28;20124;-62
2024/04/06 12:26:30;;;;;;;2.38;0.45;;;25.60;45.10;;;;;;5014607;28;20055;-62
2024/04/06 12:28:56;;;;;;;0.55;0.50;;;25.60;45.10;;;;;;4990872;28;20073;-61
2024/04/06 12:31:22;;;;;;;1.30;0.40;;;25.60;45.00;;;;;;4979899;28;20053;-61
2024/04/06 12:33:47;;;;;;;2.47;0.70;;;25.60;46.00;;;;;;4975885;28;20038;-62
2024/04/06 12:36:13;;;;;;;1.05;0.43;;;25.60;45.30;;;;;;4975905;28;20097;-59
2024/04/06 12:38:39;;;;;;;0.95;0.60;;;25.60;44.80;;;;;;4985397;28;20057;-61
2024/04/06 12:41:05;;;;;;;0.80;0.60;;;25.60;44.40;;;;;;4997333;28;20694;-61
2024/04/06 12:43:30;;;;;;;0.90;0.60;;;25.70;44.40;;;;;;4977508;28;20578;-62